Alger, OH

7:54 AM EST on February 27, 2015 (GMT -0500)
Ada | Change Station
CLOSE
Current Station
Personal Weather Station
Location: Ada, OH
Elevation: 912 ft
Nearby Weather Stations
Active Advisory: Wind Chill Advisory

Elev 912 ft 40.82 °N, 83.86 °W | Updated 6 seconds ago

Partly Cloudy
Partly Cloudy
-5.0 °F
Feels Like -5 °F
N
0.0
Wind Variable Wind from SSE
Gusts 1.0 mph

Today
High -- | Low -- °F
--% Chance of Precip.
Yesterday
High -- | Low -- °F
Precip. -- in
7:12 AM 6:24 PM
Waxing Gibbous, 68% visible
Pressure 30.51 in
Visibility 6.0 miles
Clouds Few 3500 ft
Windchill -5 °F
Dew Point -8 °F
Humidity 86%
Rainfall 0.00 in
Snow Depth Not available.
UV 0 out of 12
Pollen .60 out of 12
Air Quality Not available.
Flu Activity Not available.
METAR KAOH 271153Z AUTO 00000KT 6SM HZ FEW035 M18/M22 A3044 RMK AO2 SLP332 I6000 T11831217 11122 21189 51026

More Conditions Fewer Conditions

Pressure 30.51 in
Visibility 6.0 miles
Clouds Few 3500 ft
Windchill -5 °F
Dew Point -8 °F
Humidity 86%
Rainfall 0.00 in
Snow Depth Not available.
UV 0 out of 12
Pollen .60 out of 12
Air Quality Not available.
Flu Activity Not available.
METAR KAOH 271153Z AUTO 00000KT 6SM HZ FEW035 M18/M22 A3044 RMK AO2 SLP332 I6000 T11831217 11122 21189 51026

More Conditions Fewer Conditions

10-Day Weather Forecast

Almanac

Astronomy

Feb. 27, 2015 Rise Set
Actual Time
Civil Twilight
Nautical Twilight
Astronomical Twilight
Moon
Length of Visible Light
Length of Day
Tomorrow will be .
, % of the Moon is Illuminated

Today's Extremes

State Highs State Lows

Community

WunderPhotos

Upload Photos

1,800,667 photos uploaded!

WunderBlogs® & News

Nearby

Air Quality

  Air Quality AQ Index Pollutant
Not available.

Snow Depth

Station Depth Elevation

Earthquake Activity

City Distance Mag. Time & Date
Minimum magnitude displayed is 2.5.

Coastal Water Temperatures

Place Temperature

Nearby Weather Stations

Wind Chill Advisory
Statement as of 4:05 AM EST on February 27, 2015

... Wind Chill Advisory remains in effect until 11 am EST this
morning...

* hazard types... cold wind chill readings... as low as 14 below at
times.

* Impacts... the frigid conditions will be dangerous to those
venturing outside. Exposure may cause frostbite.

Precautionary/preparedness actions...

A Wind Chill Advisory is issued when wind will combine with cold
temperatures to create dangerously cold conditions for exposed
skin. The wind will make it feel like it is between 10 and
24 degrees below zero for a period of several hours. Those
planning to venture outdoors should use common sense and dress
warmly... making sure that all exposed skin is covered.